Time;durP1;ratioP1;P1;durP2;ratioP2;P2;SDS_P1;SDS_P2;PMS_P1;PMS_P2;Temp;Humidity;BMP_temperature;BMP_pressure;BME280_temperature;BME280_humidity;BME280_pressure;Samples;Min_cycle;Max_cycle;Signal;HPM_P1;HPM_P2
2024/01/14 00:01:08;;;;;;;62.93;29.33;;;2.10;99.90;;;;;;5057397;28;20462;-80
2024/01/14 00:03:37;;;;;;;53.20;23.40;;;2.10;99.90;;;;;;5056301;28;20472;-79
2024/01/14 00:06:04;;;;;;;63.87;28.77;;;2.10;99.90;;;;;;5070605;28;20493;-79
2024/01/14 00:08:31;;;;;;;54.57;23.00;;;2.10;99.90;;;;;;5062538;28;20451;-79
2024/01/14 00:10:58;;;;;;;55.87;24.73;;;2.20;99.90;;;;;;5056787;28;20475;-79
2024/01/14 00:13:26;;;;;;;55.40;24.80;;;2.10;99.90;;;;;;5057216;28;20559;-79
2024/01/14 00:15:53;;;;;;;54.50;24.67;;;2.20;99.90;;;;;;5056927;28;20458;-78
2024/01/14 00:18:19;;;;;;;48.77;24.60;;;2.20;99.90;;;;;;5057718;28;20460;-80
2024/01/14 00:20:46;;;;;;;59.00;26.00;;;2.20;99.90;;;;;;5060778;28;20451;-79
2024/01/14 00:23:13;;;;;;;61.57;26.33;;;2.20;99.90;;;;;;5056703;28;20495;-80
2024/01/14 00:25:40;;;;;;;59.77;24.47;;;2.10;99.90;;;;;;5054595;28;20507;-77
2024/01/14 00:28:06;;;;;;;60.67;23.90;;;2.20;99.90;;;;;;5056452;28;20822;-80
2024/01/14 00:30:35;;;;;;;66.43;26.63;;;2.30;99.90;;;;;;5056494;28;20434;-79
2024/01/14 00:33:01;;;;;;;55.97;25.77;;;2.20;99.90;;;;;;5056612;28;20547;-78
2024/01/14 00:35:28;;;;;;;66.77;26.73;;;2.20;99.90;;;;;;5056439;28;20444;-80
2024/01/14 00:37:55;;;;;;;59.47;27.63;;;2.20;99.90;;;;;;5058201;28;20478;-80
2024/01/14 00:40:22;;;;;;;71.70;28.40;;;2.10;99.90;;;;;;5056088;28;20451;-79
2024/01/14 00:42:49;;;;;;;59.70;24.43;;;2.20;99.90;;;;;;5057414;28;20898;-80
2024/01/14 00:45:16;;;;;;;59.57;25.90;;;2.20;99.90;;;;;;5057313;28;20488;-79
2024/01/14 00:47:44;;;;;;;64.77;27.80;;;2.20;99.90;;;;;;5057118;28;20476;-80
2024/01/14 00:50:11;;;;;;;51.30;24.90;;;2.20;99.90;;;;;;5057052;28;20456;-80
2024/01/14 00:52:38;;;;;;;62.13;25.60;;;2.10;99.90;;;;;;5056577;28;20464;-80
2024/01/14 00:55:08;;;;;;;59.33;27.90;;;2.10;99.90;;;;;;5056881;28;20449;-80
2024/01/14 00:57:35;;;;;;;61.37;28.30;;;2.20;99.90;;;;;;5066500;28;20447;-79
2024/01/14 01:00:03;;;;;;;74.83;30.00;;;2.10;99.90;;;;;;5056651;28;20435;-80
2024/01/14 01:02:31;;;;;;;76.10;31.83;;;2.20;99.90;;;;;;5056491;28;20514;-80
2024/01/14 01:04:59;;;;;;;65.87;27.30;;;2.10;99.90;;;;;;5057252;28;20492;-79
2024/01/14 01:07:26;;;;;;;66.93;29.53;;;2.10;99.90;;;;;;5056629;28;20452;-80
2024/01/14 01:09:56;;;;;;;61.53;25.70;;;2.10;99.90;;;;;;5056299;28;20511;-80
2024/01/14 01:12:25;;;;;;;63.90;26.20;;;2.10;99.90;;;;;;5057022;28;20469;-78
2024/01/14 01:14:52;;;;;;;55.03;25.20;;;2.00;99.90;;;;;;5056287;28;20519;-79
2024/01/14 01:17:19;;;;;;;61.87;26.40;;;2.00;99.90;;;;;;5056040;28;20479;-79
2024/01/14 01:19:45;;;;;;;65.90;27.33;;;2.00;99.90;;;;;;5056121;28;20462;-79
2024/01/14 01:22:14;;;;;;;62.77;26.93;;;2.10;99.90;;;;;;5057291;28;20550;-80
2024/01/14 01:24:40;;;;;;;61.40;27.63;;;2.10;99.90;;;;;;5057572;28;20488;-79
2024/01/14 01:27:07;;;;;;;60.37;24.93;;;2.10;99.90;;;;;;5062870;28;20834;-80
2024/01/14 01:29:34;;;;;;;56.83;25.17;;;2.10;99.90;;;;;;5063775;28;20444;-79
2024/01/14 01:32:01;;;;;;;55.20;23.70;;;2.10;99.90;;;;;;5063063;28;20443;-80
2024/01/14 01:34:28;;;;;;;53.70;24.17;;;2.10;99.90;;;;;;5062729;28;20467;-79
2024/01/14 01:36:54;;;;;;;48.40;24.40;;;2.10;99.90;;;;;;5071179;28;20451;-80
2024/01/14 01:39:23;;;;;;;58.00;26.10;;;2.20;99.90;;;;;;5062952;28;20473;-78
2024/01/14 01:41:51;;;;;;;51.30;23.47;;;2.20;99.90;;;;;;5071531;28;20446;-79
2024/01/14 01:44:19;;;;;;;50.27;23.83;;;2.20;99.90;;;;;;5063346;28;20551;-80
2024/01/14 01:46:46;;;;;;;45.40;22.97;;;2.20;99.90;;;;;;5065201;28;20450;-78
2024/01/14 01:49:13;;;;;;;41.80;22.00;;;2.20;99.90;;;;;;5065136;28;20936;-80
2024/01/14 01:51:43;;;;;;;56.67;25.43;;;2.30;99.90;;;;;;5063475;28;20819;-80
2024/01/14 01:54:10;;;;;;;49.80;24.17;;;2.20;99.90;;;;;;5063147;28;20474;-80
2024/01/14 01:56:40;;;;;;;53.23;25.17;;;2.20;99.90;;;;;;5063362;28;20454;-78
2024/01/14 01:59:07;;;;;;;47.53;22.67;;;2.20;99.90;;;;;;5063690;28;20570;-79
2024/01/14 02:01:35;;;;;;;47.30;25.10;;;2.10;99.90;;;;;;5063558;28;20658;-79
2024/01/14 02:04:03;;;;;;;47.17;22.67;;;2.20;99.90;;;;;;5063778;28;20554;-80
2024/01/14 02:06:33;;;;;;;46.70;22.97;;;2.10;99.90;;;;;;5063607;28;21081;-79
2024/01/14 02:09:00;;;;;;;47.47;24.70;;;2.10;99.90;;;;;;5065403;28;20451;-79
2024/01/14 02:11:26;;;;;;;40.43;21.17;;;2.10;99.90;;;;;;5067819;28;20527;-79
2024/01/14 02:13:55;;;;;;;44.80;22.67;;;2.20;99.90;;;;;;5062657;28;20475;-79
2024/01/14 02:16:21;;;;;;;46.93;23.17;;;2.20;99.90;;;;;;5062711;28;20999;-78
2024/01/14 02:18:48;;;;;;;51.70;26.23;;;2.20;99.90;;;;;;5062541;28;20459;-79
2024/01/14 02:21:20;;;;;;;46.73;24.80;;;2.20;99.90;;;;;;5062638;28;20462;-79
2024/01/14 02:23:53;;;;;;;43.60;22.13;;;2.20;99.90;;;;;;5062253;28;20891;-80
2024/01/14 02:26:22;;;;;;;47.30;22.50;;;2.20;99.90;;;;;;5063187;28;20493;-80
2024/01/14 02:28:49;;;;;;;41.20;22.57;;;2.10;99.90;;;;;;5062302;28;20538;-79
2024/01/14 02:31:16;;;;;;;55.73;25.93;;;2.20;99.90;;;;;;5062358;28;20522;-80
2024/01/14 02:33:43;;;;;;;46.67;24.33;;;2.20;99.90;;;;;;5062842;28;20856;-79
2024/01/14 02:36:10;;;;;;;48.80;23.60;;;2.20;99.90;;;;;;5074635;28;20486;-77
2024/01/14 02:38:36;;;;;;;51.27;21.07;;;2.20;99.90;;;;;;5075807;28;20484;-78
2024/01/14 02:41:03;;;;;;;56.20;24.90;;;2.20;99.90;;;;;;5074090;28;20450;-78
2024/01/14 02:43:31;;;;;;;45.53;21.90;;;2.10;99.90;;;;;;5063574;28;20475;-79
2024/01/14 02:45:58;;;;;;;50.73;22.07;;;2.20;99.90;;;;;;5059309;28;20473;-78
2024/01/14 02:48:25;;;;;;;46.30;21.47;;;2.20;99.90;;;;;;5060005;28;20451;-79
2024/01/14 02:50:52;;;;;;;42.37;23.80;;;2.10;99.90;;;;;;5058811;28;20464;-79
2024/01/14 02:53:18;;;;;;;42.30;20.80;;;2.10;99.90;;;;;;5058856;28;20476;-79
2024/01/14 02:55:45;;;;;;;49.57;22.20;;;2.20;99.90;;;;;;5059554;28;20478;-79
2024/01/14 02:58:12;;;;;;;42.47;20.27;;;2.20;99.90;;;;;;5059468;28;20453;-79
2024/01/14 03:00:40;;;;;;;48.77;24.03;;;2.20;99.90;;;;;;5058369;28;20452;-78
2024/01/14 03:03:07;;;;;;;57.33;25.30;;;2.30;99.90;;;;;;5059214;28;20928;-79
2024/01/14 03:05:34;;;;;;;49.67;24.07;;;2.30;99.90;;;;;;5059310;28;20578;-79
2024/01/14 03:08:01;;;;;;;44.20;22.90;;;2.20;99.90;;;;;;5059344;28;20457;-79
2024/01/14 03:10:27;;;;;;;44.43;23.20;;;2.20;99.90;;;;;;5059030;28;20540;-79
2024/01/14 03:12:54;;;;;;;40.53;20.77;;;2.10;99.90;;;;;;5059107;28;21166;-79
2024/01/14 03:15:21;;;;;;;48.33;21.97;;;2.10;99.90;;;;;;5058854;28;20843;-79
2024/01/14 03:17:49;;;;;;;50.70;23.37;;;2.10;99.90;;;;;;5058872;28;20466;-79
2024/01/14 03:20:16;;;;;;;45.50;23.13;;;2.00;99.90;;;;;;5058512;28;20448;-79
2024/01/14 03:22:43;;;;;;;50.43;23.93;;;2.10;99.90;;;;;;5058831;28;21038;-79
2024/01/14 03:25:10;;;;;;;39.13;20.73;;;2.00;99.90;;;;;;5059422;28;20975;-80
2024/01/14 03:27:37;;;;;;;53.97;23.33;;;2.10;99.90;;;;;;5059199;28;20462;-79
2024/01/14 03:30:05;;;;;;;53.23;21.87;;;2.10;99.90;;;;;;5059779;28;20946;-79
2024/01/14 03:32:32;;;;;;;45.80;22.50;;;2.10;99.90;;;;;;5059084;28;20551;-79
2024/01/14 03:35:00;;;;;;;50.27;22.70;;;2.10;99.90;;;;;;5059504;28;20455;-79
2024/01/14 03:37:26;;;;;;;45.67;21.60;;;2.20;99.90;;;;;;5059463;28;20468;-79
2024/01/14 03:39:54;;;;;;;57.47;24.90;;;2.20;99.90;;;;;;5058959;28;20828;-79
2024/01/14 03:42:20;;;;;;;51.80;23.13;;;2.20;99.90;;;;;;5059686;28;20462;-79
2024/01/14 03:44:47;;;;;;;51.60;22.40;;;2.20;99.90;;;;;;5059238;28;20479;-80
2024/01/14 03:47:14;;;;;;;55.27;25.60;;;2.30;99.90;;;;;;5058815;28;20489;-79
2024/01/14 03:49:41;;;;;;;46.47;22.83;;;2.30;99.90;;;;;;5058711;28;20979;-79
2024/01/14 03:52:09;;;;;;;53.03;23.17;;;2.30;99.90;;;;;;5058694;28;20535;-79
2024/01/14 03:54:36;;;;;;;49.70;23.37;;;2.30;99.90;;;;;;5058106;28;20447;-78
2024/01/14 03:57:03;;;;;;;44.30;22.20;;;2.20;99.90;;;;;;5059496;28;20456;-79
2024/01/14 03:59:29;;;;;;;47.87;22.40;;;2.30;99.90;;;;;;5058726;28;20535;-80
2024/01/14 04:01:56;;;;;;;48.17;23.40;;;2.20;99.90;;;;;;5065967;28;20521;-79
2024/01/14 04:04:23;;;;;;;48.33;21.53;;;2.30;99.90;;;;;;5058400;28;20563;-79
2024/01/14 04:06:50;;;;;;;53.53;22.30;;;2.20;99.90;;;;;;5058782;28;21224;-80
2024/01/14 04:09:18;;;;;;;46.50;24.33;;;2.20;99.90;;;;;;5058106;28;20844;-79
2024/01/14 04:11:45;;;;;;;44.10;21.37;;;2.20;99.90;;;;;;5057660;28;20543;-79
2024/01/14 04:14:11;;;;;;;47.17;22.67;;;2.20;99.90;;;;;;5058849;28;21017;-80
2024/01/14 04:16:39;;;;;;;40.13;20.80;;;2.20;99.90;;;;;;5058322;28;20454;-79
2024/01/14 04:19:06;;;;;;;43.37;21.17;;;2.20;99.90;;;;;;5058480;28;20978;-79
2024/01/14 04:21:33;;;;;;;37.13;19.70;;;2.20;99.90;;;;;;5058359;28;20470;-78
2024/01/14 04:24:02;;;;;;;43.63;20.60;;;2.20;99.90;;;;;;5049450;28;20563;-80
2024/01/14 04:26:31;;;;;;;45.93;23.07;;;2.20;99.90;;;;;;5058151;28;20533;-79
2024/01/14 04:28:58;;;;;;;43.43;21.00;;;2.30;99.90;;;;;;5057485;28;20527;-78
2024/01/14 04:31:25;;;;;;;43.17;21.80;;;2.30;99.90;;;;;;5057602;28;20545;-80
2024/01/14 04:33:51;;;;;;;44.30;21.53;;;2.30;99.90;;;;;;5057391;28;20541;-79
2024/01/14 04:36:18;;;;;;;43.03;23.17;;;2.30;99.90;;;;;;5057829;28;20448;-79
2024/01/14 04:38:45;;;;;;;40.30;20.97;;;2.30;99.90;;;;;;5056934;28;20861;-79
2024/01/14 04:41:12;;;;;;;48.37;21.37;;;2.20;99.90;;;;;;5057309;28;20555;-79
2024/01/14 04:43:40;;;;;;;52.60;22.60;;;2.20;99.90;;;;;;5057442;28;20486;-79
2024/01/14 04:46:09;;;;;;;45.70;22.53;;;2.20;99.90;;;;;;5057381;28;20592;-79
2024/01/14 04:48:35;;;;;;;44.20;21.90;;;2.20;99.90;;;;;;5057394;28;20460;-79
2024/01/14 04:51:02;;;;;;;50.40;24.97;;;2.30;99.90;;;;;;5057186;28;20994;-79
2024/01/14 04:53:29;;;;;;;64.07;29.17;;;2.30;99.90;;;;;;5057425;28;20478;-79
2024/01/14 04:55:56;;;;;;;60.93;28.53;;;2.20;99.90;;;;;;5065340;28;20463;-79
2024/01/14 04:58:23;;;;;;;57.60;26.50;;;2.10;99.90;;;;;;5057238;28;20547;-79
2024/01/14 05:00:51;;;;;;;63.70;27.80;;;2.20;99.90;;;;;;5056423;28;20954;-79
2024/01/14 05:03:18;;;;;;;62.90;28.07;;;2.10;99.90;;;;;;5057052;28;20476;-79
2024/01/14 05:05:45;;;;;;;57.37;25.53;;;2.20;99.90;;;;;;5056956;28;20913;-79
2024/01/14 05:08:11;;;;;;;70.90;28.80;;;2.20;99.90;;;;;;5057189;28;20450;-79
2024/01/14 05:10:38;;;;;;;69.23;29.63;;;2.20;99.90;;;;;;5056279;28;20561;-79
2024/01/14 05:13:05;;;;;;;59.13;26.97;;;2.20;99.90;;;;;;5057296;28;20480;-79
2024/01/14 05:15:32;;;;;;;60.07;27.80;;;2.20;99.90;;;;;;5057273;28;20452;-79
2024/01/14 05:18:00;;;;;;;60.30;27.20;;;2.20;99.90;;;;;;5065819;28;20455;-79
2024/01/14 05:20:27;;;;;;;62.03;29.00;;;2.30;99.90;;;;;;5056179;28;20856;-79
2024/01/14 05:22:54;;;;;;;62.63;29.07;;;2.30;99.90;;;;;;5056112;28;20578;-79
2024/01/14 05:25:21;;;;;;;64.73;28.63;;;2.30;99.90;;;;;;5057231;28;20488;-78
2024/01/14 05:27:48;;;;;;;57.00;27.90;;;2.20;99.90;;;;;;5057122;28;20488;-78
2024/01/14 05:30:15;;;;;;;58.37;27.57;;;2.20;99.90;;;;;;5056153;28;20821;-79
2024/01/14 05:32:42;;;;;;;57.43;29.50;;;2.20;99.90;;;;;;5055979;28;20535;-80
2024/01/14 05:35:10;;;;;;;63.00;29.10;;;2.20;99.90;;;;;;5056995;28;20513;-79
2024/01/14 05:37:37;;;;;;;58.80;26.87;;;2.20;99.90;;;;;;5056426;28;20463;-78
2024/01/14 05:40:05;;;;;;;56.63;26.83;;;2.20;99.90;;;;;;5056202;28;21108;-79
2024/01/14 05:42:32;;;;;;;52.63;27.93;;;2.20;99.90;;;;;;5056345;28;20456;-79
2024/01/14 05:44:59;;;;;;;57.83;28.00;;;2.20;99.90;;;;;;5055843;28;20535;-79
2024/01/14 05:47:25;;;;;;;54.07;26.40;;;2.20;99.90;;;;;;5056293;28;21079;-79
2024/01/14 05:49:53;;;;;;;58.93;28.10;;;2.30;99.90;;;;;;5054915;28;20466;-79
2024/01/14 05:52:21;;;;;;;55.30;26.60;;;2.30;99.90;;;;;;5055528;28;20467;-79
2024/01/14 05:54:48;;;;;;;56.83;26.23;;;2.40;99.90;;;;;;5055935;28;20471;-79
2024/01/14 05:57:15;;;;;;;63.30;29.17;;;2.40;99.90;;;;;;5056098;28;20467;-79
2024/01/14 05:59:42;;;;;;;54.37;26.67;;;2.40;99.90;;;;;;5055897;28;21025;-79
2024/01/14 06:02:09;;;;;;;54.17;27.10;;;2.40;99.90;;;;;;5070961;28;20457;-79
2024/01/14 06:04:39;;;;;;;51.77;25.43;;;2.50;99.90;;;;;;5064093;28;20493;-78
2024/01/14 06:07:06;;;;;;;55.67;26.03;;;2.40;99.90;;;;;;5075724;28;20488;-77
2024/01/14 06:09:34;;;;;;;54.47;26.93;;;2.40;99.90;;;;;;5073937;28;20439;-80
2024/01/14 06:12:01;;;;;;;47.87;24.50;;;2.40;99.90;;;;;;5064138;28;20524;-79
2024/01/14 06:14:27;;;;;;;57.27;25.47;;;2.40;99.90;;;;;;5067457;28;20482;-79
2024/01/14 06:16:54;;;;;;;49.67;27.17;;;2.40;99.90;;;;;;5059452;28;20449;-79
2024/01/14 06:19:21;;;;;;;55.00;27.30;;;2.30;99.90;;;;;;5059776;28;20897;-79
2024/01/14 06:21:48;;;;;;;62.83;30.43;;;2.30;99.90;;;;;;5057521;28;20470;-78
2024/01/14 06:24:15;;;;;;;59.50;27.33;;;2.20;99.90;;;;;;5059514;28;20487;-79
2024/01/14 06:26:44;;;;;;;59.67;30.87;;;2.30;99.90;;;;;;5059480;28;21002;-79
2024/01/14 06:29:11;;;;;;;60.70;28.83;;;2.30;99.90;;;;;;5058977;28;20448;-79
2024/01/14 06:31:38;;;;;;;60.70;25.93;;;2.20;99.90;;;;;;5059373;28;20982;-80
2024/01/14 06:34:07;;;;;;;51.53;26.10;;;2.30;99.90;;;;;;5056717;28;20881;-79
2024/01/14 06:36:34;;;;;;;59.90;25.97;;;2.20;99.90;;;;;;5059937;28;20427;-79
2024/01/14 06:39:01;;;;;;;51.33;25.13;;;2.30;99.90;;;;;;5059985;28;20520;-79
2024/01/14 06:41:28;;;;;;;59.67;28.80;;;2.20;99.90;;;;;;5059487;28;20499;-79
2024/01/14 06:43:56;;;;;;;54.53;24.00;;;2.20;99.90;;;;;;5062978;28;20988;-80
2024/01/14 06:46:23;;;;;;;47.50;23.93;;;2.20;99.90;;;;;;5064981;28;20480;-79
2024/01/14 06:48:49;;;;;;;50.93;25.37;;;2.10;99.90;;;;;;5059171;28;21018;-78
2024/01/14 06:51:16;;;;;;;40.93;23.13;;;2.20;99.90;;;;;;5064885;28;20463;-79
2024/01/14 06:53:43;;;;;;;44.90;21.03;;;2.10;99.90;;;;;;5056789;28;20475;-80
2024/01/14 06:56:10;;;;;;;43.53;20.90;;;2.10;99.90;;;;;;5059400;28;20538;-79
2024/01/14 06:58:38;;;;;;;44.30;20.67;;;2.20;99.90;;;;;;5058490;28;20535;-79
2024/01/14 07:01:07;;;;;;;49.70;22.47;;;2.10;99.90;;;;;;5058489;28;20442;-80
2024/01/14 07:03:34;;;;;;;39.50;21.73;;;2.10;99.90;;;;;;5059309;28;20472;-80
2024/01/14 07:06:01;;;;;;;44.73;21.63;;;2.10;99.90;;;;;;5053598;28;20459;-80
2024/01/14 07:08:28;;;;;;;40.13;21.87;;;2.10;99.90;;;;;;5063433;28;20895;-79
2024/01/14 07:10:54;;;;;;;54.60;24.17;;;2.10;99.90;;;;;;5056494;28;20440;-80
2024/01/14 07:13:21;;;;;;;49.80;25.13;;;2.10;99.90;;;;;;5066957;28;20478;-79
2024/01/14 07:15:48;;;;;;;47.80;23.43;;;2.10;99.90;;;;;;5058657;28;20462;-80
2024/01/14 07:18:16;;;;;;;55.60;25.27;;;2.10;99.90;;;;;;5066735;28;20454;-79
2024/01/14 07:20:43;;;;;;;58.50;28.30;;;2.00;99.90;;;;;;5060716;28;20804;-80
2024/01/14 07:23:10;;;;;;;56.27;25.80;;;2.10;99.90;;;;;;5058838;28;20447;-79
2024/01/14 07:25:37;;;;;;;55.00;25.97;;;2.10;99.90;;;;;;5057588;28;20452;-79
2024/01/14 07:28:04;;;;;;;57.17;26.57;;;2.10;99.90;;;;;;5056254;28;21015;-79
2024/01/14 07:30:30;;;;;;;65.77;25.80;;;2.10;99.90;;;;;;5045986;28;20444;-80
2024/01/14 07:32:57;;;;;;;60.83;27.83;;;2.10;99.90;;;;;;5049389;28;20486;-80
2024/01/14 07:35:25;;;;;;;60.47;27.20;;;2.10;99.90;;;;;;5052708;28;20445;-79
2024/01/14 07:37:52;;;;;;;53.73;24.43;;;2.20;99.90;;;;;;5048548;28;20456;-79
2024/01/14 07:40:19;;;;;;;53.83;26.60;;;2.10;99.90;;;;;;5049952;28;20454;-79
2024/01/14 07:42:46;;;;;;;75.23;29.63;;;2.10;99.90;;;;;;5056719;28;20447;-79
2024/01/14 07:45:13;;;;;;;70.60;27.53;;;2.10;99.90;;;;;;5063940;28;20463;-78
2024/01/14 07:47:41;;;;;;;57.43;26.07;;;2.20;99.90;;;;;;5068193;28;20462;-78
2024/01/14 07:50:10;;;;;;;67.93;26.07;;;2.20;99.90;;;;;;5071247;28;20456;-78
2024/01/14 07:52:38;;;;;;;56.03;26.90;;;2.30;99.90;;;;;;5073665;28;20454;-79
2024/01/14 07:55:07;;;;;;;47.83;23.27;;;2.30;99.90;;;;;;5067444;28;20516;-79
2024/01/14 07:57:34;;;;;;;47.17;24.63;;;2.20;99.90;;;;;;5059431;28;20444;-79
2024/01/14 08:00:01;;;;;;;44.23;23.70;;;2.10;99.90;;;;;;5051702;28;20452;-79
2024/01/14 08:02:27;;;;;;;52.50;23.63;;;2.10;99.90;;;;;;5054820;28;20486;-78
2024/01/14 08:04:54;;;;;;;56.57;25.97;;;2.10;99.90;;;;;;5060343;28;20789;-78
2024/01/14 08:07:21;;;;;;;56.97;24.10;;;2.20;99.90;;;;;;5057401;28;20566;-79
2024/01/14 08:09:49;;;;;;;64.73;27.60;;;2.20;99.90;;;;;;5051634;28;20460;-78
2024/01/14 08:12:16;;;;;;;50.57;23.93;;;2.10;99.90;;;;;;5063742;28;20466;-80
2024/01/14 08:14:43;;;;;;;62.43;26.27;;;2.10;99.90;;;;;;5059306;28;20472;-79
2024/01/14 08:17:10;;;;;;;69.57;27.17;;;2.00;99.90;;;;;;5057962;28;20448;-78
2024/01/14 08:19:37;;;;;;;53.80;24.80;;;1.90;99.90;;;;;;5058699;28;20459;-79
2024/01/14 08:22:03;;;;;;;65.67;27.73;;;2.00;99.90;;;;;;5062135;28;20462;-79
2024/01/14 08:24:30;;;;;;;55.03;25.20;;;2.00;99.90;;;;;;5059169;28;20987;-79
2024/01/14 08:27:20;;;;;;;50.70;25.57;;;2.00;99.90;;;;;;5058494;28;20496;-77
2024/01/14 08:29:47;;;;;;;54.77;26.90;;;2.10;99.90;;;;;;5057663;28;20451;-78
2024/01/14 08:32:14;;;;;;;52.97;24.57;;;2.10;99.90;;;;;;5062949;28;20516;-78
2024/01/14 08:34:41;;;;;;;47.50;23.80;;;2.20;99.90;;;;;;5068547;28;20486;-78
2024/01/14 08:37:08;;;;;;;50.57;28.10;;;2.20;99.90;;;;;;5056809;28;20454;-79
2024/01/14 08:39:34;;;;;;;63.07;28.03;;;2.10;99.90;;;;;;5057332;28;20452;-79
2024/01/14 08:42:01;;;;;;;56.70;26.97;;;2.10;99.90;;;;;;5057315;28;20456;-78
2024/01/14 08:44:29;;;;;;;48.17;23.00;;;2.10;99.90;;;;;;5057104;28;20506;-79
2024/01/14 08:46:56;;;;;;;48.17;24.20;;;2.10;99.90;;;;;;5057327;28;20523;-80
2024/01/14 08:49:24;;;;;;;52.80;23.20;;;2.10;99.90;;;;;;5059172;28;20458;-79
2024/01/14 08:51:51;;;;;;;52.13;22.50;;;2.20;99.90;;;;;;5057277;28;20509;-79
2024/01/14 08:54:21;;;;;;;43.13;22.77;;;2.20;99.90;;;;;;5051100;28;20551;-78
2024/01/14 08:56:48;;;;;;;54.37;23.93;;;2.30;99.90;;;;;;5054493;28;20463;-78
2024/01/14 08:59:15;;;;;;;48.57;23.10;;;2.30;99.90;;;;;;5055907;28;20533;-79
2024/01/14 09:01:43;;;;;;;47.20;23.90;;;2.20;99.90;;;;;;5056141;28;20442;-80
2024/01/14 09:04:10;;;;;;;53.50;23.03;;;2.20;99.90;;;;;;5053548;28;20467;-79
2024/01/14 09:06:38;;;;;;;43.27;21.80;;;2.10;99.90;;;;;;5058919;28;20535;-78
2024/01/14 09:09:06;;;;;;;49.40;22.73;;;2.10;99.90;;;;;;5051989;28;20491;-79
2024/01/14 09:11:33;;;;;;;50.83;21.77;;;2.10;99.90;;;;;;5063204;28;20453;-78
2024/01/14 09:14:00;;;;;;;53.23;22.03;;;2.20;99.90;;;;;;5059241;28;20476;-78
2024/01/14 09:16:29;;;;;;;45.40;23.33;;;2.10;99.90;;;;;;5056014;28;20453;-79
2024/01/14 09:18:57;;;;;;;44.63;23.07;;;2.10;99.90;;;;;;5055787;28;20733;-79
2024/01/14 09:21:25;;;;;;;50.37;22.80;;;2.20;99.90;;;;;;5057790;28;20440;-80
2024/01/14 09:23:51;;;;;;;52.20;25.33;;;2.20;99.90;;;;;;5058795;28;20535;-78
2024/01/14 09:26:18;;;;;;;44.27;22.77;;;2.20;99.90;;;;;;5059155;28;20426;-79
2024/01/14 09:28:45;;;;;;;45.87;22.07;;;2.10;99.90;;;;;;5060167;28;20502;-79
2024/01/14 09:31:13;;;;;;;46.43;24.40;;;2.10;99.90;;;;;;5068122;28;20515;-79
2024/01/14 09:33:40;;;;;;;46.27;22.20;;;2.10;99.90;;;;;;5067351;28;20514;-78
2024/01/14 09:36:11;;;;;;;46.07;23.77;;;2.10;99.90;;;;;;5057064;28;20530;-79
2024/01/14 09:38:38;;;;;;;46.60;23.00;;;2.20;99.90;;;;;;5057503;28;20879;-79
2024/01/14 09:41:21;;;;;;;46.00;23.33;;;2.20;99.90;;;;;;5064397;28;20459;-79
2024/01/14 09:43:50;;;;;;;51.53;21.97;;;2.20;99.90;;;;;;5056330;28;20479;-80
2024/01/14 09:46:18;;;;;;;45.97;23.37;;;2.20;99.90;;;;;;5055928;28;20456;-77
2024/01/14 09:48:47;;;;;;;39.80;19.80;;;2.20;99.90;;;;;;5059861;28;20487;-78
2024/01/14 09:51:16;;;;;;;41.83;20.93;;;2.20;99.90;;;;;;5059946;28;20487;-78
2024/01/14 09:53:44;;;;;;;39.30;19.80;;;2.10;99.90;;;;;;5059381;28;20530;-79
2024/01/14 09:56:13;;;;;;;34.80;18.37;;;2.20;99.90;;;;;;5060659;28;20433;-79
2024/01/14 09:58:41;;;;;;;41.27;21.50;;;2.20;99.90;;;;;;5060005;28;20426;-78
2024/01/14 10:01:10;;;;;;;49.73;22.17;;;2.20;99.90;;;;;;5060235;28;20458;-79
2024/01/14 10:03:37;;;;;;;39.97;19.80;;;2.20;99.90;;;;;;5055176;28;20481;-79
2024/01/14 10:06:05;;;;;;;35.30;19.23;;;2.10;99.90;;;;;;5059521;28;20535;-79
2024/01/14 10:08:33;;;;;;;49.43;22.43;;;2.20;99.90;;;;;;5056391;28;20578;-79
2024/01/14 10:11:03;;;;;;;38.00;17.73;;;2.00;99.90;;;;;;5059913;28;20448;-78
2024/01/14 10:13:31;;;;;;;43.07;21.23;;;2.10;99.90;;;;;;5060305;28;20480;-79
2024/01/14 10:15:58;;;;;;;36.63;19.43;;;2.10;99.90;;;;;;5060359;28;20478;-78
2024/01/14 10:18:25;;;;;;;41.60;20.03;;;2.00;99.90;;;;;;5059159;28;20781;-77
2024/01/14 10:20:53;;;;;;;42.43;20.97;;;2.10;99.90;;;;;;5052911;28;20461;-79
2024/01/14 10:23:23;;;;;;;33.57;19.03;;;2.10;99.90;;;;;;5058509;28;20483;-79
2024/01/14 10:26:01;;;;;;;36.33;17.57;;;2.10;99.90;;;;;;5054294;28;20486;-79
2024/01/14 10:28:31;;;;;;;37.87;19.13;;;2.20;99.90;;;;;;5054776;28;20958;-79
2024/01/14 10:30:59;;;;;;;37.10;18.00;;;2.20;99.90;;;;;;5058446;28;20461;-78
2024/01/14 10:33:35;;;;;;;35.67;18.03;;;2.10;99.90;;;;;;5059562;28;20513;-79
2024/01/14 10:36:07;;;;;;;36.73;20.00;;;2.00;99.90;;;;;;5061354;28;20443;-79
2024/01/14 10:38:33;;;;;;;36.03;18.03;;;2.10;99.90;;;;;;5063534;28;20454;-78
2024/01/14 10:41:03;;;;;;;38.63;18.57;;;2.10;99.90;;;;;;5064082;28;20474;-79
2024/01/14 10:43:29;;;;;;;35.97;18.20;;;2.10;99.90;;;;;;5062346;28;20475;-79
2024/01/14 10:45:59;;;;;;;35.77;17.83;;;2.20;99.90;;;;;;5065183;28;20477;-79
2024/01/14 10:48:29;;;;;;;33.00;18.47;;;2.20;99.90;;;;;;5067692;28;21036;-79
2024/01/14 10:51:03;;;;;;;38.17;18.00;;;2.30;99.90;;;;;;5064654;28;20466;-79
2024/01/14 10:53:35;;;;;;;39.53;18.80;;;2.20;99.90;;;;;;5058430;28;20467;-79
2024/01/14 10:56:07;;;;;;;30.90;18.03;;;2.20;99.90;;;;;;5059738;28;20444;-79
2024/01/14 10:58:38;;;;;;;30.27;16.20;;;2.20;99.90;;;;;;5067564;28;20435;-77
2024/01/14 11:01:11;;;;;;;31.77;17.23;;;2.30;99.90;;;;;;5064633;28;20452;-79
2024/01/14 11:03:39;;;;;;;33.53;16.27;;;2.20;99.90;;;;;;5058648;28;20470;-79
2024/01/14 11:06:07;;;;;;;31.00;16.10;;;2.30;99.90;;;;;;5067805;28;20454;-78
2024/01/14 11:08:38;;;;;;;29.87;16.20;;;2.30;99.90;;;;;;5057249;28;20488;-79
2024/01/14 11:11:07;;;;;;;29.23;17.27;;;2.40;99.90;;;;;;5056145;28;20541;-79
2024/01/14 11:13:40;;;;;;;28.40;14.83;;;2.40;99.90;;;;;;5056521;28;20555;-79
2024/01/14 11:16:17;;;;;;;24.27;14.20;;;2.40;99.90;;;;;;5067824;28;20538;-79
2024/01/14 11:18:50;;;;;;;20.57;12.97;;;2.30;99.90;;;;;;5066465;28;20477;-78
2024/01/14 11:21:31;;;;;;;23.03;15.13;;;2.40;99.90;;;;;;5053182;28;20460;-79
2024/01/14 11:23:58;;;;;;;24.93;13.73;;;2.30;99.90;;;;;;5061914;28;20544;-78
2024/01/14 11:26:27;;;;;;;28.80;14.30;;;2.30;99.90;;;;;;5062568;28;20451;-79
2024/01/14 11:28:55;;;;;;;30.43;14.57;;;2.30;99.90;;;;;;5060467;28;20462;-79
2024/01/14 11:31:22;;;;;;;22.03;12.77;;;2.30;99.90;;;;;;5055520;28;20462;-78
2024/01/14 11:33:49;;;;;;;26.57;13.33;;;2.30;99.90;;;;;;5050998;28;20457;-79
2024/01/14 11:36:46;;;;;;;24.67;13.00;;;2.30;99.90;;;;;;5057469;28;20441;-79
2024/01/14 11:39:17;;;;;;;23.33;13.90;;;2.40;99.90;;;;;;5057752;28;20445;-79
2024/01/14 11:41:46;;;;;;;19.73;11.53;;;2.40;99.90;;;;;;5053658;28;20433;-79
2024/01/14 11:44:12;;;;;;;20.20;12.27;;;2.30;99.90;;;;;;5061807;28;20487;-80
2024/01/14 11:46:40;;;;;;;18.20;10.47;;;2.30;99.90;;;;;;5056454;28;20459;-79
2024/01/14 11:49:11;;;;;;;17.00;9.33;;;2.30;99.90;;;;;;5058983;28;20515;-77
2024/01/14 11:51:43;;;;;;;20.30;10.43;;;2.30;99.90;;;;;;5056249;28;20452;-79
2024/01/14 11:54:13;;;;;;;15.77;10.00;;;2.20;99.90;;;;;;5052850;28;20543;-78
2024/01/14 11:56:43;;;;;;;17.30;9.80;;;2.20;99.90;;;;;;5059151;28;21880;-79
2024/01/14 11:59:13;;;;;;;16.90;9.00;;;2.20;99.90;;;;;;5059340;28;20444;-78
2024/01/14 12:01:40;;;;;;;18.67;10.03;;;2.20;99.90;;;;;;5059356;28;20454;-79
2024/01/14 12:04:09;;;;;;;17.07;8.70;;;2.20;99.90;;;;;;5054807;28;20439;-80
2024/01/14 12:06:40;;;;;;;19.73;11.73;;;2.20;99.90;;;;;;5062369;28;20426;-80
2024/01/14 12:09:07;;;;;;;17.93;9.97;;;2.20;99.90;;;;;;5057032;28;20487;-80
2024/01/14 12:11:35;;;;;;;20.67;9.50;;;2.20;99.90;;;;;;5058470;28;20566;-78
2024/01/14 12:14:02;;;;;;;21.43;11.87;;;2.10;99.90;;;;;;5059547;28;21029;-79
2024/01/14 12:16:31;;;;;;;28.40;14.87;;;2.20;99.90;;;;;;5058997;28;20486;-79
2024/01/14 12:18:58;;;;;;;22.97;12.73;;;2.20;99.90;;;;;;5063888;28;20960;-79
2024/01/14 12:21:26;;;;;;;17.77;10.53;;;2.30;99.90;;;;;;5060123;28;20459;-79
2024/01/14 12:23:53;;;;;;;24.30;12.57;;;2.30;99.90;;;;;;5060931;28;20472;-79
2024/01/14 12:26:20;;;;;;;21.07;11.10;;;2.30;99.90;;;;;;5059798;28;20422;-80
2024/01/14 12:28:50;;;;;;;22.60;11.40;;;2.30;99.90;;;;;;5059689;28;20565;-79
2024/01/14 12:31:21;;;;;;;27.10;13.60;;;2.30;99.90;;;;;;5061345;28;20527;-78
2024/01/14 12:33:49;;;;;;;22.57;11.87;;;2.30;99.90;;;;;;5061813;28;20468;-79
2024/01/14 12:36:16;;;;;;;25.00;13.90;;;2.30;99.90;;;;;;5063570;28;20463;-81
2024/01/14 12:38:43;;;;;;;24.73;12.27;;;2.20;99.90;;;;;;5053905;28;20495;-78
2024/01/14 12:41:11;;;;;;;20.47;11.73;;;2.30;99.90;;;;;;5048814;28;20534;-80